createdAt,value
2023-05-12T00:00:57.201Z,11.26
2023-05-12T00:11:01.241Z,11.07
2023-05-12T00:21:04.148Z,11.05
2023-05-12T00:31:08.985Z,11.07
2023-05-12T00:41:10.789Z,11.11
2023-05-12T00:51:13.555Z,11.21
2023-05-12T01:01:15.386Z,11.16
2023-05-12T01:11:17.402Z,11.12
2023-05-12T01:21:26.695Z,11.19
2023-05-12T01:31:29.472Z,11.17
2023-05-12T01:41:31.376Z,11.07
2023-05-12T01:51:33.042Z,10.94
2023-05-12T02:01:34.938Z,10.98
2023-05-12T02:11:40.146Z,10.95
2023-05-12T02:21:41.895Z,10.96
2023-05-12T02:31:43.894Z,10.86
2023-05-12T02:41:45.646Z,10.74
2023-05-12T02:51:48.848Z,10.69
2023-05-12T03:01:51.883Z,10.67
2023-05-12T03:11:53.849Z,10.61
2023-05-12T03:22:04.270Z,10.65
2023-05-12T03:32:07.661Z,10.56
2023-05-12T03:42:14.339Z,10.52
2023-05-12T03:52:19.036Z,10.50
2023-05-12T04:02:20.845Z,10.74
2023-05-12T04:12:23.767Z,10.57
2023-05-12T04:22:25.929Z,10.85
2023-05-12T04:32:27.812Z,11.03
2023-05-12T04:42:30.025Z,11.13
2023-05-12T04:52:32.193Z,11.31
2023-05-12T05:02:34.063Z,11.51
2023-05-12T05:12:36.957Z,11.51
2023-05-12T05:22:39.635Z,11.62
2023-05-12T05:32:43.796Z,11.50
2023-05-12T05:42:49.476Z,11.68
2023-05-12T05:52:52.034Z,11.83
2023-05-12T06:02:54.082Z,11.92
2023-05-12T06:13:00.456Z,12.14
2023-05-12T06:23:03.302Z,12.82
2023-05-12T06:33:07.114Z,12.74
2023-05-12T06:43:09.000Z,12.77
2023-05-12T06:53:12.064Z,12.90
2023-05-12T07:03:15.081Z,13.16
2023-05-12T07:13:20.111Z,13.75
2023-05-12T07:23:22.854Z,13.97
2023-05-12T07:33:37.730Z,14.02
2023-05-12T07:43:40.308Z,13.71
2023-05-12T07:53:43.431Z,14.24
2023-05-12T08:03:45.175Z,13.95
2023-05-12T08:13:51.208Z,14.08
2023-05-12T08:23:52.839Z,14.40
2023-05-12T08:34:09.145Z,14.80
2023-05-12T08:44:14.927Z,14.34
2023-05-12T08:54:19.169Z,14.28
2023-05-12T09:04:20.978Z,13.52
2023-05-12T09:14:33.553Z,12.67
2023-05-12T09:24:40.800Z,12.15
2023-05-12T09:34:51.647Z,12.04
2023-05-12T09:44:53.631Z,12.15
2023-05-12T09:54:55.545Z,12.33
2023-05-12T10:05:03.202Z,11.95
2023-05-12T10:15:07.219Z,11.89
2023-05-12T10:25:09.868Z,11.86
2023-05-12T10:35:13.300Z,11.96
2023-05-12T10:45:25.131Z,11.52
2023-05-12T10:55:52.779Z,11.40
2023-05-12T11:06:05.466Z,11.70
2023-05-12T11:16:12.879Z,12.42
2023-05-12T11:26:19.143Z,12.73
2023-05-12T11:36:21.769Z,12.32
2023-05-12T11:46:29.865Z,12.50
2023-05-12T11:56:32.964Z,12.12
2023-05-12T12:06:44.273Z,11.94
2023-05-12T12:16:46.918Z,11.86
2023-05-12T12:26:49.131Z,11.84
2023-05-12T12:36:51.615Z,11.70
2023-05-12T12:47:03.150Z,11.49
2023-05-12T12:57:04.990Z,11.43
2023-05-12T13:07:07.189Z,11.54
2023-05-12T13:17:13.293Z,11.58
2023-05-12T13:27:16.122Z,11.68
2023-05-12T13:37:18.036Z,11.79
2023-05-12T13:47:19.939Z,11.61
2023-05-12T13:57:23.494Z,11.43
2023-05-12T14:07:26.600Z,11.45
2023-05-12T14:17:29.309Z,11.23
2023-05-12T14:27:33.017Z,11.03
2023-05-12T14:37:34.618Z,11.04
2023-05-12T14:47:36.745Z,10.88
2023-05-12T14:57:42.098Z,11.00
2023-05-12T15:07:44.055Z,11.01
2023-05-12T15:17:49.120Z,10.86
2023-05-12T15:27:52.075Z,10.87
2023-05-12T15:37:54.554Z,11.07
2023-05-12T15:47:56.865Z,10.97
2023-05-12T15:58:01.326Z,11.15
2023-05-12T16:08:05.041Z,11.11
2023-05-12T16:18:09.930Z,11.01
2023-05-12T16:28:12.918Z,10.96
2023-05-12T16:38:20.788Z,10.78
2023-05-12T16:48:26.503Z,10.72
2023-05-12T16:58:35.964Z,10.67
2023-05-12T17:08:44.697Z,10.55
2023-05-12T17:28:54.368Z,10.35
2023-05-12T17:38:57.233Z,10.30
2023-05-12T17:48:58.976Z,10.18
2023-05-12T17:59:04.766Z,10.14
2023-05-12T18:09:08.771Z,10.07
2023-05-12T18:19:16.015Z,9.99
2023-05-12T18:29:19.904Z,9.83
2023-05-12T18:39:21.859Z,9.83
2023-05-12T18:49:30.721Z,9.77
2023-05-12T18:59:34.190Z,9.81
2023-05-12T19:09:37.287Z,9.87
2023-05-12T19:19:39.911Z,9.84
2023-05-12T19:29:49.649Z,9.86
2023-05-12T19:39:51.828Z,9.89
2023-05-12T19:49:54.600Z,9.91
2023-05-12T19:59:57.335Z,9.98
2023-05-12T20:10:01.106Z,9.95
2023-05-12T20:20:04.239Z,10.01
2023-05-12T20:30:07.892Z,10.04
2023-05-12T20:40:11.044Z,10.03
2023-05-12T20:50:12.841Z,10.00
2023-05-12T21:00:17.320Z,10.06
2023-05-12T21:10:19.404Z,10.07
2023-05-12T21:20:23.827Z,10.03
2023-05-12T21:30:25.583Z,10.02
2023-05-12T21:40:31.845Z,10.13
2023-05-12T21:50:37.069Z,10.15
2023-05-12T22:00:41.157Z,10.08
2023-05-12T22:10:43.476Z,10.01
2023-05-12T22:20:51.160Z,10.04
2023-05-12T22:30:53.841Z,10.01
2023-05-12T22:40:55.752Z,10.03
2023-05-12T22:51:03.705Z,9.99
2023-05-12T23:01:06.064Z,10.00
2023-05-12T23:11:09.752Z,9.94
2023-05-12T23:21:11.487Z,9.94
2023-05-12T23:31:13.542Z,9.96
2023-05-12T23:41:15.246Z,9.89
2023-05-12T23:51:17.136Z,9.82
